createdAt,value
2023-02-12T00:06:26.324Z,4.40
2023-02-12T00:14:31.755Z,4.90
2023-02-12T00:22:39.800Z,4.90
2023-02-12T00:30:45.283Z,4.90
2023-02-12T00:38:55.384Z,5.20
2023-02-12T00:47:03.910Z,5.00
2023-02-12T00:55:12.328Z,5.10
2023-02-12T01:03:18.223Z,5.10
2023-02-12T01:11:26.260Z,5.40
2023-02-12T01:19:32.029Z,5.50
2023-02-12T01:27:40.022Z,5.60
2023-02-12T01:35:45.448Z,5.60
2023-02-12T01:44:12.260Z,5.50
2023-02-12T01:52:21.447Z,5.70
2023-02-12T02:00:29.441Z,5.40
2023-02-12T02:08:37.736Z,5.40
2023-02-12T02:16:56.073Z,5.50
2023-02-12T02:25:24.893Z,5.60
2023-02-12T02:33:40.449Z,5.00
2023-02-12T02:41:50.521Z,5.20
2023-02-12T02:50:02.536Z,5.00
2023-02-12T02:58:12.321Z,5.30
2023-02-12T03:06:25.496Z,5.10
2023-02-12T03:14:35.289Z,5.20
2023-02-12T03:22:46.452Z,5.00
2023-02-12T03:30:57.060Z,5.00
2023-02-12T03:39:11.530Z,5.20
2023-02-12T03:47:24.507Z,4.80
2023-02-12T03:55:35.810Z,5.20
2023-02-12T04:03:41.628Z,4.40
2023-02-12T04:12:05.475Z,3.50
2023-02-12T04:20:18.628Z,4.00
2023-02-12T04:28:37.617Z,4.40
2023-02-12T04:36:54.758Z,4.20
2023-02-12T04:45:02.826Z,4.40
2023-02-12T04:53:08.673Z,3.90
2023-02-12T05:01:16.697Z,4.20
2023-02-12T05:09:23.938Z,4.70
2023-02-12T05:17:31.964Z,4.30
2023-02-12T05:25:37.285Z,4.60
2023-02-12T05:33:45.265Z,4.90
2023-02-12T05:41:50.695Z,5.20
2023-02-12T05:49:58.689Z,5.50
2023-02-12T05:58:03.993Z,5.40
2023-02-12T06:06:12.230Z,5.40
2023-02-12T06:14:19.293Z,5.50
2023-02-12T06:22:27.244Z,5.70
2023-02-12T06:30:32.683Z,5.80
2023-02-12T06:38:40.920Z,6.00
2023-02-12T06:46:46.455Z,6.10
2023-02-12T06:54:54.583Z,6.00
2023-02-12T07:03:00.112Z,6.10
2023-02-12T07:11:08.708Z,6.30
2023-02-12T07:19:17.218Z,6.50
2023-02-12T07:27:25.256Z,6.50
2023-02-12T07:35:30.674Z,6.50
2023-02-12T07:43:38.824Z,6.70
2023-02-12T07:51:44.866Z,6.80
2023-02-12T07:59:52.849Z,6.90
2023-02-12T08:07:58.169Z,7.10
2023-02-12T08:16:08.555Z,6.80
2023-02-12T08:24:14.690Z,6.80
2023-02-12T08:32:22.620Z,7.20
2023-02-12T08:40:27.935Z,7.10
2023-02-12T08:48:36.202Z,7.40
2023-02-12T08:56:41.597Z,7.60
2023-02-12T09:04:49.572Z,7.20
2023-02-12T09:12:55.041Z,7.10
2023-02-12T09:21:07.916Z,7.50
2023-02-12T09:29:13.331Z,6.60
2023-02-12T09:37:21.246Z,6.80
2023-02-12T09:45:33.161Z,7.10
2023-02-12T09:53:46.438Z,7.20
2023-02-12T10:01:51.828Z,7.50
2023-02-12T10:10:21.859Z,7.80
2023-02-12T10:18:48.472Z,7.80
2023-02-12T10:27:03.965Z,7.90
2023-02-12T10:35:17.110Z,8.30
2023-02-12T10:43:25.141Z,8.40
2023-02-12T10:51:51.706Z,8.60
2023-02-12T11:00:19.589Z,8.80
2023-02-12T11:08:34.497Z,8.70
2023-02-12T11:16:49.643Z,9.00
2023-02-12T11:25:03.410Z,8.90
2023-02-12T11:33:27.743Z,9.10
2023-02-12T11:41:37.619Z,9.30
2023-02-12T11:49:52.911Z,9.10
2023-02-12T11:58:05.842Z,8.90
2023-02-12T12:06:25.168Z,8.90
2023-02-12T12:14:34.948Z,9.20
2023-02-12T12:22:52.413Z,9.70
2023-02-12T12:31:10.233Z,9.50
2023-02-12T12:39:29.712Z,9.40
2023-02-12T12:47:43.692Z,9.80
2023-02-12T12:56:04.056Z,10.00
2023-02-12T13:04:35.867Z,10.20
2023-02-12T13:12:58.276Z,10.40
2023-02-12T13:21:08.682Z,10.60
2023-02-12T13:29:21.621Z,10.60
2023-02-12T13:37:36.631Z,10.70
2023-02-12T13:45:53.407Z,10.50
2023-02-12T13:54:14.790Z,10.10
2023-02-12T14:02:52.871Z,9.90
2023-02-12T14:11:12.403Z,9.60
2023-02-12T14:20:03.802Z,9.70
2023-02-12T14:28:26.441Z,9.70
2023-02-12T14:36:44.091Z,9.10
2023-02-12T14:44:59.328Z,9.40
2023-02-12T14:53:28.473Z,9.50
2023-02-12T15:01:38.558Z,8.70
2023-02-12T15:09:50.726Z,8.80
2023-02-12T15:18:03.498Z,9.00
2023-02-12T15:26:15.733Z,9.00
2023-02-12T15:34:26.979Z,8.70
2023-02-12T15:42:34.788Z,8.70
2023-02-12T15:50:53.763Z,8.30
2023-02-12T15:59:01.995Z,8.20
2023-02-12T16:07:11.400Z,8.00
2023-02-12T16:15:35.523Z,7.80
2023-02-12T16:23:47.237Z,7.60
2023-02-12T16:32:04.352Z,7.50
2023-02-12T16:40:43.036Z,7.40
2023-02-12T16:48:51.941Z,7.30
2023-02-12T16:57:03.839Z,7.10
2023-02-12T17:05:10.510Z,7.10
2023-02-12T17:13:21.020Z,6.90
2023-02-12T17:21:30.392Z,6.80
2023-02-12T17:29:38.575Z,6.70
2023-02-12T17:37:44.048Z,6.60
2023-02-12T17:45:53.408Z,6.50
2023-02-12T17:54:12.740Z,6.30
2023-02-12T18:02:21.319Z,6.30
2023-02-12T18:10:28.769Z,5.90
2023-02-12T18:18:38.603Z,5.90
2023-02-12T18:26:46.977Z,5.40
2023-02-12T18:34:55.372Z,5.50
2023-02-12T18:43:00.849Z,5.50
2023-02-12T18:51:11.709Z,5.30
2023-02-12T18:59:18.412Z,5.30
2023-02-12T19:07:27.561Z,5.40
2023-02-12T19:15:33.213Z,5.10
2023-02-12T19:23:42.066Z,5.00
2023-02-12T19:31:49.907Z,4.80
2023-02-12T19:39:58.035Z,4.80
2023-02-12T19:48:03.545Z,4.70
2023-02-12T19:56:12.078Z,4.60
2023-02-12T20:04:19.566Z,4.40
2023-02-12T20:12:27.680Z,4.50
2023-02-12T20:20:33.375Z,4.40
2023-02-12T20:28:44.676Z,4.20
2023-02-12T20:36:51.086Z,4.20
2023-02-12T20:44:59.162Z,4.20
2023-02-12T20:53:06.165Z,4.10
2023-02-12T21:01:17.353Z,3.90
2023-02-12T21:09:23.376Z,3.80
2023-02-12T21:17:31.437Z,3.60
2023-02-12T21:25:36.852Z,3.50
2023-02-12T21:33:46.622Z,3.60
2023-02-12T21:41:52.071Z,3.70
2023-02-12T21:50:00.121Z,3.70
2023-02-12T21:58:05.712Z,3.70
2023-02-12T22:06:15.012Z,3.10
2023-02-12T22:14:20.860Z,3.20
2023-02-12T22:22:30.496Z,3.20
2023-02-12T22:30:36.316Z,3.10
2023-02-12T22:38:44.802Z,3.00
2023-02-12T22:46:50.371Z,2.80
2023-02-12T22:54:58.357Z,3.20
2023-02-12T23:03:03.739Z,2.30
2023-02-12T23:11:12.919Z,2.30
2023-02-12T23:19:18.589Z,2.40
2023-02-12T23:27:26.521Z,2.20
2023-02-12T23:35:32.427Z,2.60
2023-02-12T23:43:40.353Z,1.70
2023-02-12T23:51:46.507Z,1.80
2023-02-12T23:59:54.769Z,1.50
